Southington, CT (06489)

5:23 PM EDT on August 23, 2016 (GMT -0400)
Hart Street | | Change Station

Elev 300 ft 41.62 °N, 72.89 °W | Updated 3 minutes ago

Clear
Clear
79.3 °F
Feels Like 78 °F
N
5.4
Wind Variable Wind from North
Gusts 9.8 mph

Today
High -- | Low -- °F
--% Chance of Precip.
Yesterday
High -- | Low -- °F
Precip. -- in
Pressure 30.24 in
Visibility 10.0 miles
Clouds Clear
Heat Index 78 °F
Dew Point 40 °F
Humidity 25%
Rainfall 0.00 in
Snow Depth Not available.
6:08 AM 7:38 PM
Waning Gibbous, 64% visible
METAR KMMK 232053Z AUTO 25005KT 10SM CLR 27/11 A3024 RMK AO2 SLP239 T02670106 56010 TSNO
Pressure 30.24 in
Visibility 10.0 miles
Clouds Clear
Heat Index 78 °F
Dew Point 40 °F
Humidity 25%
Rainfall 0.00 in
Snow Depth Not available.
6:08 AM 7:38 PM
Waning Gibbous, 64% visible
METAR KMMK 232053Z AUTO 25005KT 10SM CLR 27/11 A3024 RMK AO2 SLP239 T02670106 56010 TSNO

10-Day Weather Forecast

Almanac

Astronomy

Aug. 23, 2016 Rise Set
Actual Time
Civil Twilight
Nautical Twilight
Astronomical Twilight
Moon
Length of Visible Light
Length of Day
Tomorrow will be .
, % of the Moon is Illuminated

Today's Extremes

State Highs State Lows

Community

WunderPhotos

Upload Photos

1,934,464 photos uploaded!

WunderBlog® & News

Nearby

Air Quality

  Air Quality AQ Index Pollutant
Not available.

Snow Depth

Station Depth Elevation

Earthquake Activity

City Distance Mag. Time & Date
Minimum magnitude displayed is 2.5.

Coastal Water Temperatures

Place Temperature

Stations

Nearby Weather Stations

Station Location Temp. Windchill Dew Point Humidity Wind Precip. Elev Updated Type
                   

Watches & Warnings

There are currently no watches in effect.